Flight Track Log - Related Links

Times and Time Zones

All times are in EDT time to prevent confusion due to time zone crossing. See the PAL508 flight status page for this flight to view local times or setup timezone preferences in your user account.

Time Position Orientation Groundspeed Altitude Reporting Facility
EDT Latitude Longitude Course Direction KTS MPH feet Rate Location/Type
Wed 03:37:11 AM 1.3320 103.9860 203° Southwest 160 184 700  Level FlightAware ADS-B
Wed 03:37:31 AM 1.3180 103.9800 203° Southwest 159 183 1,500 1,950 Climbing FlightAware ADS-B
Wed 03:37:51 AM 1.3050 103.9750 201° Southwest 165 190 2,000 1,350 Climbing FlightAware ADS-B
Wed 03:38:11 AM 1.2870 103.9680 201° Southwest 190 219 2,400 1,350 Climbing FlightAware ADS-B
Wed 03:38:31 AM 1.2700 103.9760 155° Southeast 214 246 2,900 1,440 Climbing FlightAware ADS-B
Wed 03:38:36 AM 1.2680 103.9790 124° Southeast 221 254 3,000 1,500 Climbing FlightAware ADS-B
Wed 03:38:51 AM 1.2620 103.9930 113° Southeast 240 276 3,400 1,680 Climbing FlightAware ADS-B
Wed 03:39:01 AM 1.2580 104.0040 110° East 253 291 3,700 2,600 Climbing FlightAware ADS-B
Wed 03:39:21 AM 1.2490 104.0290 110° East 264 304 4,700 2,933 Climbing FlightAware ADS-B
Wed 03:39:46 AM 1.2400 104.0570 108° East 268 308 5,900 2,870 Climbing FlightAware ADS-B
Wed 03:40:07 AM 1.2320 104.0810 108° East 274 315 6,900 2,400 Climbing FlightAware ADS-B
Wed 03:40:21 AM 1.2260 104.0970 111° Southeast 281 323 7,300 2,118 Climbing FlightAware ADS-B
Wed 03:40:41 AM 1.2180 104.1210 108° East 285 328 8,100 2,640 Climbing FlightAware ADS-B
Wed 03:41:11 AM 1.2040 104.1580 111° Southeast 290 334 9,500 2,280 Climbing FlightAware ADS-B
Wed 03:41:31 AM 1.1950 104.1820 111° Southeast 293 337 10,000 750 Climbing FlightAware ADS-B
Wed 03:42:07 AM 1.1760 104.2330 110° East 290 334 10,200 771 Climbing FlightAware ADS-B
Wed 03:42:41 AM 1.1600 104.2770 110° East 318 366 10,900 1,826 Climbing FlightAware ADS-B
Wed 03:43:16 AM 1.1430 104.3230 110° East 321 369 12,300 1,680 Climbing FlightAware ADS-B
Wed 03:43:56 AM 1.1290 104.3830 103° East 329 379 13,000 700 Climbing FlightAware ADS-B
Wed 03:44:16 AM 1.1400 104.4120 69° East 347 399 13,000  Level FlightAware ADS-B
Wed 03:44:51 AM 1.1630 104.4600 64° Northeast 364 419 13,000  Level FlightAware ADS-B
Wed 03:45:41 AM 1.1980 104.5350 65° Northeast 361 415 13,000 300 Level FlightAware ADS-B
Wed 03:46:11 AM 1.2190 104.5850 67° East 363 418 13,400 1,725 Climbing FlightAware ADS-B
Wed 03:47:01 AM 1.2300 104.6690 83° East 371 427 15,300 2,100 Climbing FlightAware ADS-B
Wed 03:47:31 AM 1.2360 104.7230 84° East 380 437 16,200 2,314 Climbing FlightAware ADS-B
Wed 03:48:11 AM 1.2440 104.7910 83° East 372 428 18,000 2,160 Climbing FlightAware ADS-B
Wed 03:48:46 AM 1.2580 104.8500 77° East 382 440 18,900 1,440 Climbing FlightAware ADS-B
Wed 03:49:26 AM 1.2580 104.8500 77° East 399 459 19,800 1,600 Climbing FlightAware ADS-B
Wed 03:50:01 AM 1.2980 104.9820 73° East 398 458 20,900 1,600 Climbing FlightAware ADS-B
Wed 03:50:41 AM 1.3230 105.0510 70° East 407 468 21,800 1,350 Climbing FlightAware ADS-B
Wed 03:51:21 AM 1.3490 105.1230 70° East 415 478 22,700 1,840 Climbing FlightAware ADS-B
Wed 03:51:56 AM 1.3710 105.1870 71° East 408 470 24,100 1,846 Climbing FlightAware ADS-B
Wed 03:52:26 AM 1.3910 105.2400 69° East 408 470 24,700 1,477 Climbing FlightAware ADS-B
Wed 03:53:01 AM 1.4160 105.3030 68° East 406 467 25,700 1,360 Climbing FlightAware ADS-B
Wed 03:53:41 AM 1.4460 105.3750 67° East 417 480 26,400 960 Climbing FlightAware ADS-B
Wed 03:54:16 AM 1.4680 105.4310 69° East 423 487 26,900 1,108 Climbing FlightAware ADS-B
Wed 03:54:46 AM 1.4900 105.4870 69° East 422 486 27,600 1,114 Climbing FlightAware ADS-B
Wed 03:55:26 AM 1.5190 105.5600 68° East 429 494 28,200 943 Climbing FlightAware ADS-B
Wed 03:55:56 AM 1.5400 105.6150 69° East 431 496 28,700 692 Climbing FlightAware ADS-B
Wed 03:56:44 AM 1.5810 105.6900 61° Northeast 434 499 29,100 918 Climbing FlightAware ADS-B
Wed 03:57:21 AM 1.5590 105.6480 242° Southwest 442 509 30,000 701 Climbing FlightAware ADS-B
Wed 03:58:01 AM 1.6120 105.6930 40° Northeast 442 509 30,000 682 Level FlightAware ADS-B
Wed 03:58:49 AM 1.5960 105.6800 219° Southwest 442 509 31,000 2,025 Climbing FlightAware ADS-B
Wed 03:59:21 AM 1.5590 105.6480 221° Southwest 443 510 32,700 1,417 Climbing FlightAware ADS-B
Wed 04:00:01 AM 1.6150 105.6900 37° Northeast 443 510 32,700 575 Level FlightAware ADS-B
Wed 04:00:34 AM 1.5980 105.6770 217° Southwest 443 510 33,400 609 Climbing FlightAware ADS-B
Wed 04:01:10 AM 1.6480 105.7150 37° Northeast 443 510 33,400  Level FlightAware ADS-B
Wed 04:01:46 AM 1.6980 105.7520 36° Northeast 443 510 33,400 1,147 Level FlightAware ADS-B
Wed 04:02:18 AM 1.5960 105.6760 217° Southwest 439 505 34,700 1,147 Climbing FlightAware ADS-B
Wed 04:02:54 AM 1.6460 105.7130 36° Northeast 439 505 34,700 975 Level FlightAware ADS-B
Wed 04:03:38 AM 2.2790 106.1970 37° Northeast 438 504 36,000 963 Climbing FlightAware ADS-B
Wed 04:04:15 AM 2.3300 106.2350 37° Northeast 438 504 36,000 82 Level FlightAware ADS-B
Wed 04:04:51 AM 2.2760 106.1950 217° Southwest 438 504 36,100  Climbing FlightAware ADS-B
Wed 04:05:26 AM 2.2420 106.1690 217° Southwest 419 482 36,000 -78 Descending FlightAware ADS-B
Wed 04:06:08 AM 2.5080 106.3680 37° Northeast 419 482 36,000  Level FlightAware ADS-B
Wed 04:06:41 AM 2.5630 106.4100 37° Northeast 421 484 36,000  Level FlightAware ADS-B
Wed 04:07:17 AM 2.6110 106.4460 37° Northeast 421 484 36,000  Level FlightAware ADS-B
Wed 04:07:54 AM 2.5620 106.4090 217° Southwest 421 484 36,000  Level FlightAware ADS-B
Wed 04:08:30 AM 2.6090 106.4450 37° Northeast 421 484 36,000  Level FlightAware ADS-B
Wed 04:09:06 AM 2.6570 106.4810 37° Northeast 421 484 36,000 74 Level FlightAware ADS-B
Wed 04:09:51 AM 2.9020 106.5840 23° Northeast 427 491 36,100 74 Climbing FlightAware ADS-B
Wed 04:10:27 AM 2.9560 106.6120 27° Northeast 427 491 36,100  Level FlightAware ADS-B
Wed 04:11:21 AM 3.0370 106.6530 27° Northeast 427 491 36,100 -67 Level FlightAware ADS-B
Wed 04:11:56 AM 3.1250 106.7000 28° Northeast 425 489 36,000 -55 Descending FlightAware ADS-B
Wed 04:13:11 AM 3.2010 106.7390 27° Northeast 425 489 36,000  Level FlightAware ADS-B
Wed 04:13:46 AM 3.3220 106.8020 27° Northeast 426 490 36,000  Level FlightAware ADS-B
Wed 04:14:21 AM 3.3780 106.8310 27° Northeast 427 491 36,000  Level FlightAware ADS-B
Wed 04:14:58 AM 3.4330 106.8590 27° Northeast 427 491 36,000  Level FlightAware ADS-B
Wed 04:15:26 AM 3.3410 106.8120 207° Southwest 428 493 36,000  Level FlightAware ADS-B
Wed 04:16:06 AM 3.4000 106.8430 28° Northeast 428 493 36,000  Level FlightAware ADS-B
Wed 04:16:42 AM 3.4540 106.8720 28° Northeast 428 493 36,000  Level FlightAware ADS-B
Wed 04:17:18 AM 3.5070 106.9000 28° Northeast 428 493 36,000  Level FlightAware ADS-B
Wed 04:17:55 AM 3.5620 106.9300 29° Northeast 428 493 36,000  Level FlightAware ADS-B
Wed 04:18:31 AM 3.6160 106.9580 27° Northeast 428 493 36,000  Level FlightAware ADS-B
Wed 04:19:07 AM 3.6690 106.9870 29° Northeast 428 493 36,000  Level FlightAware ADS-B
Wed 04:19:44 AM 3.7240 107.0160 28° Northeast 428 493 36,000  Level FlightAware ADS-B
Wed 04:20:20 AM 3.7780 107.0440 27° Northeast 428 493 36,000  Level FlightAware ADS-B
Wed 04:20:56 AM 3.8310 107.0730 29° Northeast 428 493 36,000  Level FlightAware ADS-B
Wed 04:21:32 AM 3.8850 107.1010 27° Northeast 428 493 36,000  Level FlightAware ADS-B
Wed 04:22:08 AM 3.9380 107.1300 29° Northeast 428 493 36,000  Level FlightAware ADS-B
Wed 04:22:44 AM 3.9920 107.1580 27° Northeast 428 493 36,000  Level FlightAware ADS-B
Wed 04:23:20 AM 4.0450 107.1870 29° Northeast 428 493 36,000  Level FlightAware ADS-B
Wed 04:23:56 AM 4.0990 107.2150 27° Northeast 428 493 36,000  Level FlightAware ADS-B
Wed 04:24:32 AM 4.1520 107.2440 29° Northeast 428 493 36,000  Level FlightAware ADS-B
Wed 04:25:08 AM 4.2060 107.2730 28° Northeast 428 493 36,000  Level FlightAware ADS-B
Wed 04:27:00 AM 4.3217 107.4205 52° Northeast  Level Estimated
Wed 04:28:00 AM 4.3836 107.4996 52° Northeast  Level Estimated
Wed 04:29:00 AM 4.4455 107.5787 52° Northeast  Level Estimated
Wed 04:30:00 AM 4.5075 107.6577 52° Northeast  Level Estimated
Wed 04:31:00 AM 4.5694 107.7368 52° Northeast  Level Estimated
Wed 04:32:00 AM 4.6313 107.8159 52° Northeast  Level Estimated
Wed 04:33:00 AM 4.6932 107.8951 52° Northeast  Level Estimated
Wed 04:34:00 AM 4.7551 107.9742 52° Northeast  Level Estimated
Wed 04:35:00 AM 4.8170 108.0533 52° Northeast  Level Estimated
Wed 04:36:00 AM 4.8789 108.1325 52° Northeast  Level Estimated
Wed 04:37:00 AM 4.9407 108.2117 52° Northeast  Level Estimated
Wed 04:38:00 AM 5.0026 108.2909 52° Northeast  Level Estimated
Wed 04:39:00 AM 5.0644 108.3701 52° Northeast  Level Estimated
Wed 04:40:00 AM 5.1263 108.4493 52° Northeast  Level Estimated
Wed 04:41:00 AM 5.1881 108.5285 52° Northeast  Level Estimated
Wed 04:42:00 AM 5.2499 108.6078 52° Northeast  Level Estimated
Wed 04:43:00 AM 5.3117 108.6870 52° Northeast  Level Estimated
Wed 04:44:00 AM 5.3735 108.7663 52° Northeast  Level Estimated
Wed 04:45:00 AM 5.4353 108.8456 52° Northeast  Level Estimated
Wed 04:46:00 AM 5.4971 108.9250 52° Northeast  Level Estimated
Wed 04:47:00 AM 5.5589 109.0043 52° Northeast  Level Estimated
Wed 04:48:00 AM 5.6206 109.0836 52° Northeast  Level Estimated
Wed 04:49:00 AM 5.6824 109.1630 52° Northeast  Level Estimated
Wed 04:50:00 AM 5.7441 109.2424 52° Northeast  Level Estimated
Wed 04:51:00 AM 5.8059 109.3218 52° Northeast  Level Estimated
Wed 04:52:00 AM 5.8676 109.4012 52° Northeast  Level Estimated
Wed 04:53:00 AM 5.9293 109.4807 52° Northeast  Level Estimated
Wed 04:54:00 AM 5.9910 109.5601 52° Northeast  Level Estimated
Wed 04:55:00 AM 6.0526 109.6396 52° Northeast  Level Estimated
Wed 04:56:00 AM 6.1143 109.7191 52° Northeast  Level Estimated
Wed 04:57:00 AM 6.1760 109.7986 52° Northeast  Level Estimated
Wed 04:58:00 AM 6.2376 109.8781 52° Northeast  Level Estimated
Wed 04:59:00 AM 6.2992 109.9576 52° Northeast  Level Estimated
Wed 05:00:00 AM 6.3609 110.0372 52° Northeast  Level Estimated
Wed 05:01:00 AM 6.4225 110.1168 52° Northeast  Level Estimated
Wed 05:02:00 AM 6.4841 110.1964 52° Northeast  Level Estimated
Wed 05:03:00 AM 6.5457 110.2760 52° Northeast  Level Estimated
Wed 05:04:00 AM 6.6072 110.3557 52° Northeast  Level Estimated
Wed 05:05:00 AM 6.6688 110.4353 52° Northeast  Level Estimated
Wed 05:06:00 AM 6.7303 110.5150 52° Northeast  Level Estimated
Wed 05:07:00 AM 6.7919 110.5947 52° Northeast  Level Estimated
Wed 05:08:00 AM 6.8534 110.6744 52° Northeast  Level Estimated
Wed 05:09:00 AM 6.9149 110.7542 52° Northeast  Level Estimated
Wed 05:10:00 AM 6.9764 110.8339 52° Northeast  Level Estimated
Wed 05:11:00 AM 7.0379 110.9137 52° Northeast  Level Estimated
Wed 05:12:00 AM 7.0993 110.9935 52° Northeast  Level Estimated
Wed 05:13:00 AM 7.1608 111.0733 52° Northeast  Level Estimated
Wed 05:14:00 AM 7.2222 111.1532 52° Northeast  Level Estimated
Wed 05:15:00 AM 7.2836 111.2331 52° Northeast  Level Estimated
Wed 05:16:00 AM 7.3451 111.3130 52° Northeast  Level Estimated
Wed 05:17:00 AM 7.4065 111.3929 52° Northeast  Level Estimated
Wed 05:18:00 AM 7.4678 111.4728 52° Northeast  Level Estimated
Wed 05:19:00 AM 7.5292 111.5528 52° Northeast  Level Estimated
Wed 05:20:00 AM 7.5906 111.6327 52° Northeast  Level Estimated
Wed 05:21:00 AM 7.6519 111.7127 52° Northeast  Level Estimated
Wed 05:22:00 AM 7.7132 111.7928 52° Northeast  Level Estimated
Wed 05:23:00 AM 7.7745 111.8728 52° Northeast  Level Estimated
Wed 05:24:00 AM 7.8358 111.9529 52° Northeast  Level Estimated
Wed 05:25:00 AM 7.8971 112.0330 52° Northeast  Level Estimated
Wed 05:26:00 AM 7.9584 112.1131 52° Northeast  Level Estimated
Wed 05:27:00 AM 8.0196 112.1933 52° Northeast  Level Estimated
Wed 05:28:00 AM 8.0808 112.2734 52° Northeast  Level Estimated
Wed 05:29:00 AM 8.1421 112.3536 52° Northeast  Level Estimated
Wed 05:30:00 AM 8.2033 112.4338 52° Northeast  Level Estimated
Wed 05:31:00 AM 8.2645 112.5141 52° Northeast  Level Estimated
Wed 05:32:00 AM 8.3256 112.5944 52° Northeast  Level Estimated
Wed 05:33:00 AM 8.3868 112.6746 52° Northeast  Level Estimated
Wed 05:34:00 AM 8.4479 112.7550 52° Northeast  Level Estimated
Wed 05:35:00 AM 8.5090 112.8353 52° Northeast  Level Estimated
Wed 05:36:00 AM 8.5702 112.9157 52° Northeast  Level Estimated
Wed 05:37:00 AM 8.6312 112.9961 52° Northeast  Level Estimated
Wed 05:38:00 AM 8.6923 113.0765 52° Northeast  Level Estimated
Wed 05:39:00 AM 8.7534 113.1569 52° Northeast  Level Estimated
Wed 05:40:00 AM 8.8144 113.2374 52° Northeast  Level Estimated
Wed 05:41:00 AM 8.8754 113.3179 53° Northeast  Level Estimated
Wed 05:42:00 AM 8.9364 113.3984 53° Northeast  Level Estimated
Wed 05:43:00 AM 8.9974 113.4790 53° Northeast  Level Estimated
Wed 05:44:00 AM 9.0584 113.5596 53° Northeast  Level Estimated
Wed 05:45:00 AM 9.1193 113.6402 53° Northeast  Level Estimated
Wed 05:46:00 AM 9.1803 113.7208 53° Northeast  Level Estimated
Wed 05:47:00 AM 9.2412 113.8015 53° Northeast  Level Estimated
Wed 05:48:00 AM 9.3021 113.8822 53° Northeast  Level Estimated
Wed 05:49:00 AM 9.3630 113.9629 53° Northeast  Level Estimated
Wed 05:50:00 AM 9.4238 114.0436 53° Northeast  Level Estimated
Wed 05:51:00 AM 9.4847 114.1244 53° Northeast  Level Estimated
Wed 05:52:00 AM 9.5455 114.2052 53° Northeast  Level Estimated
Wed 05:53:00 AM 9.6063 114.2861 53° Northeast  Level Estimated
Wed 05:54:00 AM 9.6671 114.3669 53° Northeast  Level Estimated
Wed 05:55:00 AM 9.7279 114.4478 53° Northeast  Level Estimated
Wed 05:56:00 AM 9.7886 114.5287 53° Northeast  Level Estimated
Wed 05:57:00 AM 9.8493 114.6097 53° Northeast  Level Estimated
Wed 05:58:00 AM 9.9101 114.6907 53° Northeast  Level Estimated
Wed 05:59:00 AM 9.9707 114.7717 53° Northeast  Level Estimated
Wed 06:00:00 AM 10.0314 114.8527 53° Northeast  Level Estimated
Wed 06:01:00 AM 10.0921 114.9338 53° Northeast  Level Estimated
Wed 06:02:00 AM 10.1527 115.0149 53° Northeast  Level Estimated
Wed 06:03:00 AM 10.2133 115.0960 53° Northeast  Level Estimated
Wed 06:04:00 AM 10.2739 115.1772 53° Northeast  Level Estimated
Wed 06:05:00 AM 10.3345 115.2584 53° Northeast  Level Estimated
Wed 06:06:00 AM 10.3950 115.3396 53° Northeast  Level Estimated
Wed 06:07:00 AM 10.4555 115.4209 53° Northeast  Level Estimated
Wed 06:08:00 AM 10.5161 115.5022 53° Northeast  Level Estimated
Wed 06:09:00 AM 10.5765 115.5835 53° Northeast  Level Estimated
Wed 06:10:00 AM 10.6370 115.6648 53° Northeast  Level Estimated
Wed 06:11:00 AM 10.6975 115.7462 53° Northeast  Level Estimated
Wed 06:12:00 AM 10.7579 115.8276 53° Northeast  Level Estimated
Wed 06:13:00 AM 10.8183 115.9091 53° Northeast  Level Estimated
Wed 06:14:00 AM 10.8787 115.9906 53° Northeast  Level Estimated
Wed 06:15:00 AM 10.9390 116.0721 53° Northeast  Level Estimated
Wed 06:16:00 AM 10.9994 116.1536 53° Northeast  Level Estimated
Wed 06:17:00 AM 11.0597 116.2352 53° Northeast  Level Estimated
Wed 06:18:00 AM 11.1200 116.3168 53° Northeast  Level Estimated
Wed 06:19:00 AM 11.1803 116.3985 53° Northeast  Level Estimated
Wed 06:20:00 AM 11.2405 116.4802 53° Northeast  Level Estimated
Wed 06:21:00 AM 11.3008 116.5619 53° Northeast  Level Estimated
Wed 06:22:00 AM 11.3610 116.6436 53° Northeast  Level Estimated
Wed 06:22:39 AM 12.7440 118.6320 53° Northeast 418 481 36,000  Level FlightAware ADS-B
Wed 06:23:00 AM 11.4212 116.7254 53° Northeast  Level Estimated
Wed 06:23:14 AM 12.7800 118.6790 52° Northeast 419 482 36,000  Level FlightAware ADS-B
Wed 06:24:07 AM 12.8430 118.7630 52° Northeast 423 487 36,000 71 Level FlightAware ADS-B
Wed 06:24:39 AM 12.8860 118.8210 53° Northeast 425 489 36,100  Climbing FlightAware ADS-B
Wed 06:25:17 AM 12.9330 118.8840 53° Northeast 426 490 36,000 -79 Descending FlightAware ADS-B
Wed 06:25:55 AM 12.9760 118.9420 53° Northeast 426 490 36,000  Level FlightAware ADS-B
Wed 06:26:41 AM 13.0280 119.0110 52° Northeast 426 490 36,000  Level FlightAware ADS-B
Wed 06:27:11 AM 13.0670 119.0630 52° Northeast 424 488 36,000  Level FlightAware ADS-B
Wed 06:27:49 AM 13.1150 119.1260 52° Northeast 423 487 36,000  Level FlightAware ADS-B
Wed 06:28:25 AM 13.1580 119.1830 52° Northeast 422 486 36,000  Level FlightAware ADS-B
Wed 06:28:59 AM 13.1980 119.2360 52° Northeast 421 484 36,000 -348 Level FlightAware ADS-B
Wed 06:29:34 AM 13.2400 119.2910 52° Northeast 421 484 35,600 -1,765 Descending FlightAware ADS-B
Wed 06:30:07 AM 13.2800 119.3440 52° Northeast 425 489 34,000 -2,704 Descending FlightAware ADS-B
Wed 06:30:45 AM 13.3260 119.4050 52° Northeast 424 488 32,400 -2,400 Descending FlightAware ADS-B
Wed 06:31:17 AM 13.3650 119.4560 52° Northeast 423 487 31,200 -2,507 Descending FlightAware ADS-B
Wed 06:31:52 AM 13.4060 119.5100 52° Northeast 427 491 29,600 -2,917 Descending FlightAware ADS-B
Wed 06:32:29 AM 13.4520 119.5710 52° Northeast 431 496 27,700 -2,597 Descending FlightAware ADS-B
Wed 06:32:59 AM 13.4870 119.6170 52° Northeast 425 489 26,700 -2,143 Descending FlightAware ADS-B
Wed 06:33:39 AM 13.5360 119.6830 53° Northeast 417 480 25,200 -2,160 Descending FlightAware ADS-B
Wed 06:34:14 AM 13.5760 119.7360 52° Northeast 411 473 24,000 -2,118 Descending FlightAware ADS-B
Wed 06:34:47 AM 13.6140 119.7870 53° Northeast 406 467 22,800 -2,174 Descending FlightAware ADS-B
Wed 06:35:23 AM 13.6570 119.8440 52° Northeast 403 464 21,500 -2,000 Descending FlightAware ADS-B
Wed 06:35:59 AM 13.6970 119.8970 52° Northeast 399 459 20,400 -1,853 Descending FlightAware ADS-B
Wed 06:36:31 AM 13.7310 119.9430 53° Northeast 395 455 19,400 -1,859 Descending FlightAware ADS-B
Wed 06:37:10 AM 13.7750 120.0010 52° Northeast 390 449 18,200 -1,865 Descending FlightAware ADS-B
Wed 06:37:45 AM 13.8140 120.0530 52° Northeast 385 443 17,100 -880 Descending FlightAware ADS-B
Wed 06:38:25 AM 13.8510 120.1020 52° Northeast 385 443 17,100  Level FlightAware ADS-B
Wed 06:39:01 AM 13.8850 120.1460 51° Northeast 385 443 17,100 -1,333 Level FlightAware ADS-B
Wed 06:39:28 AM 13.9180 120.1970 56° Northeast 335 386 15,700 -1,913 Descending FlightAware ADS-B
Wed 06:40:10 AM 13.9550 120.2490 54° Northeast 310 357 14,900 -1,352 Descending FlightAware ADS-B
Wed 06:40:39 AM 13.9790 120.2820 53° Northeast 306 352 14,100 -1,154 Descending FlightAware ADS-B
Wed 06:41:28 AM 14.0170 120.3350 54° Northeast 305 351 13,400 -1,248 Descending FlightAware ADS-B
Wed 06:42:20 AM 14.0590 120.3960 55° Northeast 302 348 12,000 -1,846 Descending FlightAware ADS-B
Wed 06:42:59 AM 14.0950 120.4470 54° Northeast 298 343 10,600 -1,520 Descending FlightAware ADS-B
Wed 06:43:35 AM 14.1250 120.4880 53° Northeast 291 335 10,100 -448 Descending FlightAware ADS-B
Wed 06:44:06 AM 14.1480 120.5210 54° Northeast 275 316 10,100  Level FlightAware ADS-B
Wed 06:44:43 AM 14.1760 120.5610 54° Northeast 275 316 10,100  Level FlightAware ADS-B
Wed 06:45:19 AM 14.2030 120.5990 54° Northeast 277 319 10,100  Level FlightAware ADS-B
Wed 06:45:53 AM 14.2300 120.6360 53° Northeast 276 318 10,100  Level FlightAware ADS-B
Wed 06:46:28 AM 14.2670 120.6580 30° Northeast 269 310 10,100 -214 Level FlightAware ADS-B
Wed 06:46:49 AM 14.2900 120.6710 29° Northeast 266 306 9,900 -1,000 Descending FlightAware ADS-B
Wed 06:47:10 AM 14.3130 120.6820 25° Northeast 271 312 9,400 -1,067 Descending FlightAware ADS-B
Wed 06:47:34 AM 14.3400 120.6960 27° Northeast 271 312 9,100 -698 Descending FlightAware ADS-B
Wed 06:47:53 AM 14.3620 120.7070 26° Northeast 267 307 8,900 -1,024 Descending FlightAware ADS-B
Wed 06:48:15 AM 14.3870 120.7200 27° Northeast 271 312 8,400 -1,143 Descending FlightAware ADS-B
Wed 06:48:35 AM 14.4100 120.7320 27° Northeast 267 307 8,100 -450 Descending FlightAware ADS-B
Wed 06:48:55 AM 14.4310 120.7430 27° Northeast 265 305 8,100 -150 Level FlightAware ADS-B
Wed 06:49:15 AM 14.4530 120.7540 26° Northeast 261 300 8,000 -571 Descending FlightAware ADS-B
Wed 06:49:37 AM 14.4760 120.7660 27° Northeast 251 289 7,700 -714 Descending FlightAware ADS-B
Wed 06:49:57 AM 14.4970 120.7770 27° Northeast 238 274 7,500 -698 Descending FlightAware ADS-B
Wed 06:50:20 AM 14.5190 120.7890 28° Northeast 230 265 7,200 -977 Descending FlightAware ADS-B
Wed 06:50:40 AM 14.5370 120.7990 28° Northeast 230 265 6,800 -1,071 Descending FlightAware ADS-B
Wed 06:50:48 AM 14.5420 120.8060 54° Northeast 232 267 6,700 -1,034 Descending FlightAware ADS-B
Wed 06:51:09 AM 14.5540 120.8260 58° Northeast 231 266 6,300 -900 Descending FlightAware ADS-B
Wed 06:51:28 AM 14.5650 120.8440 58° Northeast 228 262 6,100 -300 Descending FlightAware ADS-B
Wed 06:51:49 AM 14.5760 120.8640 60° Northeast 228 262 6,100  Level FlightAware ADS-B
Wed 06:52:03 AM 14.5830 120.8760 59° Northeast 228 262 6,100  Level FlightAware ADS-B
Wed 06:52:24 AM 14.5950 120.8960 58° Northeast 226 260 6,100  Level FlightAware ADS-B
Wed 06:52:43 AM 14.6060 120.9150 59° Northeast 223 257 6,100 -273 Level FlightAware ADS-B
Wed 06:53:08 AM 14.6180 120.9370 61° Northeast 221 254 5,900 -800 Descending FlightAware ADS-B
Wed 06:53:28 AM 14.6290 120.9540 56° Northeast 223 257 5,500 -1,000 Descending FlightAware ADS-B
Wed 06:53:44 AM 14.6370 120.9680 59° Northeast 221 254 5,300 -667 Descending FlightAware ADS-B
Wed 06:54:04 AM 14.6480 120.9870 59° Northeast 222 255 5,100 -308 Descending FlightAware ADS-B
Wed 06:54:23 AM 14.6590 121.0050 58° Northeast 223 257 5,100  Level FlightAware ADS-B
Wed 06:54:37 AM 14.6660 121.0180 61° Northeast 222 255 5,100 -176 Level FlightAware ADS-B
Wed 06:54:57 AM 14.6770 121.0350 56° Northeast 219 252 5,000 -571 Descending FlightAware ADS-B
Wed 06:55:19 AM 14.6880 121.0560 62° Northeast 220 253 4,700 -1,000 Descending FlightAware ADS-B
Wed 06:55:27 AM 14.6900 121.0640 76° East 220 253 4,500 -1,286 Descending FlightAware ADS-B
Wed 06:55:47 AM 14.6920 121.0840 84° East 219 252 4,100 -1,000 Descending FlightAware ADS-B
Wed 06:55:57 AM 14.6920 121.0950 90° East 218 251 4,000 -811 Descending FlightAware ADS-B
Wed 06:56:24 AM 14.6940 121.1220 86° East 216 249 3,600 -522 Descending FlightAware ADS-B
Wed 06:56:43 AM 14.6950 121.1420 87° East 218 251 3,600  Level FlightAware ADS-B
Wed 06:57:04 AM 14.6960 121.1640 87° East 220 253 3,600  Level FlightAware ADS-B
Wed 06:57:39 AM 14.6900 121.1990 100° East 207 238 3,600  Level FlightAware ADS-B
Wed 06:57:48 AM 14.6840 121.2040 141° Southeast 203 234 3,600  Level FlightAware ADS-B
Wed 06:58:07 AM 14.6690 121.2160 142° Southeast 199 229 3,600  Level FlightAware ADS-B
Wed 06:58:28 AM 14.6540 121.2280 142° Southeast 195 224 3,600  Level FlightAware ADS-B
Wed 06:58:35 AM 14.6470 121.2300 165° South 186 214 3,600  Level FlightAware ADS-B
Wed 06:59:04 AM 14.6290 121.2240 198° South 142 163 3,600  Level FlightAware ADS-B
Wed 06:59:12 AM 14.6240 121.2200 218° Southwest 135 155 3,600  Level FlightAware ADS-B
Wed 06:59:19 AM 14.6210 121.2170 224° Southwest 130 150 3,600  Level FlightAware ADS-B
Wed 06:59:31 AM 14.6160 121.2110 229° Southwest 127 146 3,600  Level FlightAware ADS-B
Wed 06:59:51 AM 14.6090 121.2010 234° Southwest 124 143 3,600 -167 Level FlightAware ADS-B
Wed 07:00:07 AM 14.6050 121.1930 243° Southwest 126 145 3,500 -500 Descending FlightAware ADS-B
Wed 07:00:27 AM 14.5990 121.1830 238° Southwest 126 145 3,300 -600 Descending FlightAware ADS-B
Wed 07:00:47 AM 14.5930 121.1720 241° Southwest 124 143 3,100 -667 Descending FlightAware ADS-B
Wed 07:01:12 AM 14.5860 121.1590 241° Southwest 126 145 2,800 -667 Descending FlightAware ADS-B
Wed 07:01:32 AM 14.5810 121.1490 243° Southwest 123 142 2,600 -615 Descending FlightAware ADS-B
Wed 07:01:51 AM 14.5750 121.1390 238° Southwest 120 138 2,400 -686 Descending FlightAware ADS-B
Wed 07:02:07 AM 14.5700 121.1310 237° Southwest 119 137 2,200 -500 Descending FlightAware ADS-B
Wed 07:02:27 AM 14.5650 121.1210 243° Southwest 119 137 2,100 -450 Descending FlightAware ADS-B
Wed 07:02:47 AM 14.5600 121.1110 243° Southwest 118 136 1,900 -600 Descending FlightAware ADS-B
Wed 07:03:07 AM 14.5540 121.1020 235° Southwest 118 136 1,700 -667 Descending FlightAware ADS-B
Wed 07:03:32 AM 14.5470 121.0890 241° Southwest 117 135 1,400 -682 Descending FlightAware ADS-B
Wed 07:03:51 AM 14.5420 121.0800 240° Southwest 117 135 1,200 -615 Descending FlightAware ADS-B
Wed 07:04:11 AM 14.5370 121.0700 243° Southwest 118 136 1,000 -649 Descending FlightAware ADS-B
Wed 07:04:28 AM 14.5320 121.0610 240° Southwest 119 137 800 -500 Descending FlightAware ADS-B
Wed 07:04:47 AM 14.5270 121.0520 240° Southwest 118 136 700 -486 Descending FlightAware ADS-B
Wed 07:05:05 AM 14.5220 121.0430 240° Southwest 121 139 500 -279 Descending FlightAware ADS-B
Wed 07:05:30 AM 14.5160 121.0330 238° Southwest 121 139 500  Level FlightAware ADS-B
Wed 07:08:00 AM 14.5086 121.0196 240° Southwest  Level Estimated

Login

Don't have an account? Register now (free) for customized features, flight alerts, and more!